Fairmont, Montana
Current Conditions -  °F | °C
As of 11:53 AM on Monday 20 Oct 2014 (Local Time) from KBTM Reporting Station
Clear Clear  
Wind Chill: 58°   Ceiling: Unl
Heat Index: 58°   Visibility: 10mi
Dew Point: 29°   Wind: 5mph
Humidity: 33%   Direction: 340°NNW
Pressure: 30"   Gusts: NA
Location:  46.0302°N, 113.143°W
Report Text: KBTM 201753Z AUTO 34004KT 10SM CLR 14/M02 A3000 RMK AO2 SLP144 T01441017 10144 21022 58009
Loading
Personal Weather Stations






























Interactive Weather Map
Tropical Storm Tracking
New forecast layout! Learn more

10-Day Weather Forecast

Advertisements
Track Severe Weather on mobile